createdAt,value
2023-05-09T00:00:06.551Z,54.50
2023-05-09T00:02:36.265Z,54.64
2023-05-09T00:05:05.419Z,54.97
2023-05-09T00:07:33.868Z,54.92
2023-05-09T00:10:04.133Z,55.23
2023-05-09T00:12:32.593Z,54.84
2023-05-09T00:15:01.270Z,54.72
2023-05-09T00:17:31.360Z,54.79
2023-05-09T00:20:01.644Z,54.96
2023-05-09T00:22:30.119Z,54.81
2023-05-09T00:24:58.563Z,54.83
2023-05-09T00:27:30.768Z,54.72
2023-05-09T00:29:59.519Z,54.60
2023-05-09T00:32:29.276Z,54.71
2023-05-09T00:34:57.841Z,54.70
2023-05-09T00:37:26.483Z,54.65
2023-05-09T00:39:54.905Z,54.56
2023-05-09T00:42:23.344Z,54.65
2023-05-09T00:44:53.125Z,54.77
2023-05-09T00:47:24.290Z,54.85
2023-05-09T00:49:52.887Z,54.84
2023-05-09T00:52:23.458Z,54.61
2023-05-09T00:54:53.043Z,54.45
2023-05-09T00:57:21.760Z,54.49
2023-05-09T00:59:53.874Z,54.42
2023-05-09T01:02:22.534Z,54.92
2023-05-09T01:04:51.309Z,55.25
2023-05-09T01:07:28.994Z,55.40
2023-05-09T01:10:07.712Z,55.46
2023-05-09T01:12:45.390Z,55.43
2023-05-09T01:15:23.785Z,55.13
2023-05-09T01:17:59.667Z,55.17
2023-05-09T01:20:34.754Z,55.16
2023-05-09T01:23:32.768Z,55.25
2023-05-09T01:26:06.019Z,55.63
2023-05-09T01:28:57.113Z,55.63
2023-05-09T01:31:28.716Z,56.14
2023-05-09T01:34:01.328Z,56.32
2023-05-09T01:36:33.292Z,56.12
2023-05-09T01:39:04.522Z,56.09
2023-05-09T01:41:37.531Z,56.46
2023-05-09T01:44:10.513Z,56.71
2023-05-09T01:46:41.483Z,57.20
2023-05-09T01:49:12.387Z,57.34
2023-05-09T01:51:43.859Z,57.31
2023-05-09T01:54:14.890Z,57.57
2023-05-09T01:56:44.706Z,57.68
2023-05-09T01:59:16.426Z,57.73
2023-05-09T02:01:48.233Z,57.95
2023-05-09T02:04:18.571Z,58.05
2023-05-09T02:06:50.833Z,58.31
2023-05-09T02:09:20.224Z,58.49
2023-05-09T02:11:48.764Z,58.56
2023-05-09T02:14:17.374Z,58.67
2023-05-09T02:16:47.777Z,58.88
2023-05-09T02:19:16.989Z,59.11
2023-05-09T02:21:45.424Z,59.19
2023-05-09T02:24:14.222Z,59.41
2023-05-09T02:26:43.319Z,59.55
2023-05-09T02:29:13.186Z,59.23
2023-05-09T02:31:43.992Z,59.23
2023-05-09T02:34:15.362Z,59.11
2023-05-09T02:36:44.587Z,59.17
2023-05-09T02:39:13.324Z,59.23
2023-05-09T02:41:41.749Z,59.43
2023-05-09T02:44:10.089Z,59.57
2023-05-09T02:46:38.468Z,59.73
2023-05-09T02:49:07.191Z,60.06
2023-05-09T02:51:37.038Z,59.98
2023-05-09T02:54:06.586Z,59.92
2023-05-09T02:56:35.006Z,59.97
2023-05-09T02:59:03.557Z,60.05
2023-05-09T03:01:32.111Z,59.97
2023-05-09T03:04:00.556Z,59.93
2023-05-09T03:06:29.133Z,59.85
2023-05-09T03:08:58.890Z,60.08
2023-05-09T03:11:27.847Z,60.26
2023-05-09T03:13:56.361Z,60.16
2023-05-09T03:16:24.996Z,59.81
2023-05-09T03:18:53.598Z,59.67
2023-05-09T03:21:23.132Z,59.61
2023-05-09T03:23:51.755Z,60.13
2023-05-09T03:26:23.660Z,60.34
2023-05-09T03:28:52.534Z,60.63
2023-05-09T03:31:21.545Z,60.66
2023-05-09T03:33:50.196Z,60.99
2023-05-09T03:36:18.669Z,60.80
2023-05-09T03:38:47.228Z,60.58
2023-05-09T03:41:17.811Z,60.97
2023-05-09T03:43:50.897Z,60.82
2023-05-09T03:46:19.428Z,60.97
2023-05-09T03:48:49.891Z,60.89
2023-05-09T03:51:18.875Z,61.15
2023-05-09T03:53:47.841Z,61.12
2023-05-09T03:56:17.048Z,61.28
2023-05-09T03:58:53.646Z,61.33
2023-05-09T04:01:22.718Z,61.59
2023-05-09T04:03:52.348Z,62.01
2023-05-09T04:06:22.103Z,60.02
2023-05-09T04:08:50.517Z,61.16
2023-05-09T04:11:21.829Z,61.63
2023-05-09T04:13:51.102Z,61.91
2023-05-09T04:16:39.607Z,61.81
2023-05-09T04:19:08.467Z,61.64
2023-05-09T04:21:37.712Z,62.05
2023-05-09T04:24:07.501Z,61.77
2023-05-09T04:26:48.384Z,61.92
2023-05-09T04:29:21.362Z,61.82
2023-05-09T04:31:56.528Z,61.96
2023-05-09T04:34:29.843Z,61.96
2023-05-09T04:37:03.065Z,62.14
2023-05-09T04:39:32.266Z,62.02
2023-05-09T04:42:07.710Z,62.56
2023-05-09T04:44:36.282Z,62.54
2023-05-09T04:47:06.821Z,62.74
2023-05-09T04:49:35.361Z,62.81
2023-05-09T04:52:04.093Z,63.06
2023-05-09T04:54:32.552Z,63.30
2023-05-09T04:57:13.651Z,63.39
2023-05-09T04:59:43.654Z,63.46
2023-05-09T05:02:16.188Z,62.95
2023-05-09T05:04:45.113Z,62.83
2023-05-09T05:07:13.974Z,62.78
2023-05-09T05:09:42.571Z,63.30
2023-05-09T05:12:11.184Z,63.40
2023-05-09T05:14:41.459Z,63.34
2023-05-09T05:17:12.179Z,63.50
2023-05-09T05:19:41.955Z,64.06
2023-05-09T05:22:10.488Z,64.23
2023-05-09T05:24:41.478Z,64.14
2023-05-09T05:27:10.481Z,64.06
2023-05-09T05:29:39.091Z,64.23
2023-05-09T05:32:08.011Z,64.29
2023-05-09T05:34:36.496Z,64.53
2023-05-09T05:37:06.723Z,64.15
2023-05-09T05:39:35.352Z,64.31
2023-05-09T05:42:04.654Z,64.30
2023-05-09T05:44:33.151Z,64.52
2023-05-09T05:47:01.703Z,64.44
2023-05-09T05:49:30.282Z,64.52
2023-05-09T05:51:58.755Z,64.56
2023-05-09T05:54:29.252Z,64.42
2023-05-09T05:56:57.664Z,64.56
2023-05-09T05:59:26.291Z,64.70
2023-05-09T06:01:54.955Z,64.45
2023-05-09T06:04:23.570Z,64.25
2023-05-09T06:06:52.381Z,63.97
2023-05-09T06:09:20.989Z,63.26
2023-05-09T06:11:50.885Z,63.26
2023-05-09T06:14:19.224Z,63.20
2023-05-09T06:16:48.033Z,63.01
2023-05-09T06:19:16.501Z,62.54
2023-05-09T06:21:45.060Z,62.50
2023-05-09T06:24:23.470Z,61.59
2023-05-09T06:26:57.846Z,61.10
2023-05-09T06:29:26.371Z,60.86
2023-05-09T06:31:55.645Z,60.32
2023-05-09T06:34:24.311Z,60.22
2023-05-09T06:36:52.771Z,59.86
2023-05-09T06:39:21.143Z,59.33
2023-05-09T06:41:49.520Z,59.24
2023-05-09T06:44:27.329Z,59.33
2023-05-09T06:46:55.860Z,59.27
2023-05-09T06:49:24.181Z,58.91
2023-05-09T06:51:52.525Z,58.35
2023-05-09T06:54:20.976Z,58.15
2023-05-09T06:56:49.358Z,57.41
2023-05-09T06:59:18.132Z,56.72
2023-05-09T07:01:48.178Z,56.23
2023-05-09T07:04:16.640Z,55.66
2023-05-09T07:06:45.077Z,54.46
2023-05-09T07:09:15.417Z,52.46
2023-05-09T07:11:43.839Z,51.86
2023-05-09T07:14:12.289Z,51.17
2023-05-09T07:16:40.668Z,49.72
2023-05-09T07:19:10.945Z,49.18
2023-05-09T07:21:39.388Z,47.09
2023-05-09T07:24:08.446Z,46.24
2023-05-09T07:26:36.977Z,46.21
2023-05-09T07:29:05.451Z,46.85
2023-05-09T07:31:37.257Z,46.18
2023-05-09T07:34:06.070Z,45.76
2023-05-09T07:39:08.304Z,46.12
2023-05-09T07:41:36.614Z,45.85
2023-05-09T07:44:05.060Z,45.89
2023-05-09T07:46:33.463Z,45.97
2023-05-09T07:49:01.788Z,45.90
2023-05-09T07:51:30.287Z,45.85
2023-05-09T07:54:00.133Z,45.50
2023-05-09T07:56:28.571Z,45.98
2023-05-09T07:58:57.014Z,45.83
2023-05-09T08:01:25.398Z,45.40
2023-05-09T08:03:54.031Z,46.15
2023-05-09T08:06:22.510Z,46.65
2023-05-09T08:08:51.279Z,46.92
2023-05-09T08:11:21.508Z,46.90
2023-05-09T08:13:49.948Z,46.98
2023-05-09T08:16:18.304Z,47.13
2023-05-09T08:18:47.246Z,46.59
2023-05-09T08:21:15.601Z,46.61
2023-05-09T08:23:44.011Z,47.09
2023-05-09T08:26:12.591Z,46.93
2023-05-09T08:28:42.394Z,46.38
2023-05-09T08:31:10.900Z,46.59
2023-05-09T08:33:41.705Z,46.28
2023-05-09T08:36:10.732Z,46.46
2023-05-09T08:38:40.790Z,47.00
2023-05-09T08:41:09.345Z,46.72
2023-05-09T08:43:39.342Z,47.37
2023-05-09T08:46:11.235Z,45.97
2023-05-09T08:48:41.105Z,46.28
2023-05-09T08:51:11.157Z,47.42
2023-05-09T08:53:41.249Z,47.99
2023-05-09T08:56:10.007Z,48.42
2023-05-09T08:58:39.446Z,47.38
2023-05-09T09:01:09.896Z,45.98
2023-05-09T09:03:39.306Z,45.60
2023-05-09T09:06:10.512Z,45.36
2023-05-09T09:08:39.276Z,44.58
2023-05-09T09:11:08.617Z,43.16
2023-05-09T09:13:41.272Z,43.19
2023-05-09T09:16:19.945Z,43.60
2023-05-09T09:18:49.206Z,43.90
2023-05-09T09:21:18.083Z,44.13
2023-05-09T09:23:48.754Z,43.77
2023-05-09T09:26:17.596Z,43.85
2023-05-09T09:28:45.932Z,43.49
2023-05-09T09:31:22.999Z,44.08
2023-05-09T09:33:52.447Z,44.30
2023-05-09T09:36:29.019Z,43.86
2023-05-09T09:39:01.598Z,44.32
2023-05-09T09:41:34.243Z,43.85
2023-05-09T09:44:09.483Z,43.58
2023-05-09T09:46:46.697Z,44.10
2023-05-09T09:49:15.920Z,43.98
2023-05-09T09:51:44.757Z,43.78
2023-05-09T09:54:14.337Z,43.57
2023-05-09T09:56:45.074Z,43.07
2023-05-09T09:59:14.731Z,43.59
2023-05-09T10:02:06.611Z,43.83
2023-05-09T10:04:39.209Z,44.13
2023-05-09T10:07:09.028Z,43.53
2023-05-09T10:09:39.018Z,42.99
2023-05-09T10:12:09.615Z,43.37
2023-05-09T10:14:43.313Z,43.28
2023-05-09T10:17:16.108Z,43.29
2023-05-09T10:19:47.720Z,42.89
2023-05-09T10:22:19.404Z,42.72
2023-05-09T10:24:52.588Z,42.70
2023-05-09T10:27:24.018Z,42.01
2023-05-09T10:29:58.805Z,42.19
2023-05-09T10:32:33.261Z,42.33
2023-05-09T10:35:07.008Z,41.78
2023-05-09T10:37:35.629Z,42.01
2023-05-09T10:40:05.973Z,40.89
2023-05-09T10:42:34.390Z,39.99
2023-05-09T10:45:03.251Z,39.76
2023-05-09T10:47:33.602Z,38.70
2023-05-09T10:50:02.438Z,38.36
2023-05-09T10:52:34.492Z,39.00
2023-05-09T10:55:04.375Z,39.57
2023-05-09T10:57:33.456Z,39.77
2023-05-09T11:00:02.018Z,40.27
2023-05-09T11:02:32.554Z,40.09
2023-05-09T11:05:18.770Z,39.94
2023-05-09T11:07:48.332Z,40.17
2023-05-09T11:10:18.666Z,39.86
2023-05-09T11:12:58.364Z,40.00
2023-05-09T11:15:28.056Z,39.98
2023-05-09T11:18:08.137Z,40.00
2023-05-09T11:20:44.444Z,40.06
2023-05-09T11:23:15.911Z,40.13
2023-05-09T11:25:47.556Z,40.00
2023-05-09T11:28:29.042Z,40.41
2023-05-09T11:31:11.418Z,40.52
2023-05-09T11:33:40.877Z,40.62
2023-05-09T11:36:25.513Z,40.58
2023-05-09T11:39:06.627Z,40.73
2023-05-09T11:41:43.263Z,40.91
2023-05-09T11:44:19.206Z,41.08
2023-05-09T11:46:48.528Z,41.35
2023-05-09T11:49:17.296Z,41.28
2023-05-09T11:51:47.106Z,41.13
2023-05-09T11:54:15.623Z,40.67
2023-05-09T11:56:44.397Z,40.44
2023-05-09T11:59:14.864Z,40.21
2023-05-09T12:01:43.893Z,40.61
2023-05-09T12:04:12.469Z,40.27
2023-05-09T12:06:41.143Z,37.59
2023-05-09T12:09:11.715Z,36.15
2023-05-09T12:11:40.108Z,35.25
2023-05-09T12:14:08.784Z,35.06
2023-05-09T12:16:46.360Z,35.49
2023-05-09T12:19:15.286Z,36.23
2023-05-09T12:21:43.687Z,37.18
2023-05-09T12:24:13.482Z,36.86
2023-05-09T12:26:42.013Z,36.66
2023-05-09T12:29:10.521Z,37.21
2023-05-09T12:31:39.150Z,38.53
2023-05-09T12:34:08.093Z,38.64
2023-05-09T12:36:37.275Z,39.37
2023-05-09T12:39:10.812Z,39.49
2023-05-09T12:41:57.322Z,40.61
2023-05-09T12:44:28.294Z,40.89
2023-05-09T12:46:58.406Z,40.87
2023-05-09T12:49:27.172Z,42.02
2023-05-09T12:51:56.870Z,42.68
2023-05-09T12:54:27.088Z,44.34
2023-05-09T12:56:59.372Z,45.79
2023-05-09T12:59:29.342Z,46.93
2023-05-09T13:01:59.079Z,48.78
2023-05-09T13:04:28.976Z,50.00
2023-05-09T13:07:00.122Z,50.68
2023-05-09T13:09:28.793Z,50.27
2023-05-09T13:11:58.562Z,49.57
2023-05-09T13:14:27.076Z,49.41
2023-05-09T13:16:55.684Z,49.62
2023-05-09T13:19:24.117Z,50.68
2023-05-09T13:21:52.915Z,50.84
2023-05-09T13:24:21.261Z,50.23
2023-05-09T13:26:49.704Z,50.15
2023-05-09T13:29:19.439Z,49.84
2023-05-09T13:31:47.899Z,50.67
2023-05-09T13:34:18.518Z,51.49
2023-05-09T13:36:46.801Z,52.63
2023-05-09T13:39:15.096Z,53.78
2023-05-09T13:41:43.704Z,54.68
2023-05-09T13:44:13.055Z,55.97
2023-05-09T13:46:43.255Z,57.32
2023-05-09T13:49:11.916Z,58.91
2023-05-09T13:51:41.250Z,60.23
2023-05-09T13:54:12.830Z,60.54
2023-05-09T13:56:41.779Z,61.34
2023-05-09T13:59:10.651Z,61.47
2023-05-09T14:01:39.360Z,61.51
2023-05-09T14:04:09.762Z,61.86
2023-05-09T14:06:38.268Z,62.51
2023-05-09T14:09:07.595Z,62.95
2023-05-09T14:11:35.983Z,62.99
2023-05-09T14:14:05.517Z,63.32
2023-05-09T14:16:34.088Z,63.60
2023-05-09T14:19:02.736Z,63.71
2023-05-09T14:21:32.533Z,63.87
2023-05-09T14:24:00.871Z,64.65
2023-05-09T14:26:30.520Z,65.31
2023-05-09T14:28:58.890Z,65.32
2023-05-09T14:31:27.610Z,65.50
2023-05-09T14:33:55.994Z,64.93
2023-05-09T14:36:24.492Z,64.73
2023-05-09T14:38:54.484Z,64.76
2023-05-09T14:41:22.995Z,65.34
2023-05-09T14:43:51.384Z,65.66
2023-05-09T14:46:19.931Z,65.67
2023-05-09T14:48:48.399Z,65.71
2023-05-09T14:51:16.776Z,65.55
2023-05-09T14:53:47.335Z,65.92
2023-05-09T14:56:17.200Z,65.61
2023-05-09T14:58:45.537Z,65.26
2023-05-09T15:01:14.432Z,65.90
2023-05-09T15:03:42.883Z,66.27
2023-05-09T15:06:12.464Z,66.66
2023-05-09T15:08:42.011Z,66.51
2023-05-09T15:11:10.379Z,66.97
2023-05-09T15:13:40.165Z,67.15
2023-05-09T15:16:09.178Z,67.33
2023-05-09T15:18:37.628Z,67.53
2023-05-09T15:21:06.546Z,67.39
2023-05-09T15:23:36.060Z,67.47
2023-05-09T15:26:04.626Z,67.69
2023-05-09T15:28:33.050Z,68.12
2023-05-09T15:31:03.892Z,68.20
2023-05-09T15:33:32.763Z,68.03
2023-05-09T15:36:01.783Z,68.33
2023-05-09T15:38:30.734Z,68.58
2023-05-09T15:40:59.112Z,68.31
2023-05-09T15:43:28.562Z,68.79
2023-05-09T15:45:57.258Z,69.01
2023-05-09T15:48:27.370Z,69.20
2023-05-09T15:50:55.787Z,69.10
2023-05-09T15:53:24.378Z,69.05
2023-05-09T15:55:52.787Z,69.30
2023-05-09T15:58:21.187Z,69.52
2023-05-09T16:00:49.773Z,69.46
2023-05-09T16:03:18.647Z,69.57
2023-05-09T16:05:48.583Z,69.83
2023-05-09T16:08:17.237Z,70.10
2023-05-09T16:10:49.084Z,69.97
2023-05-09T16:13:18.325Z,70.09
2023-05-09T16:15:48.038Z,70.38
2023-05-09T16:18:16.528Z,70.71
2023-05-09T16:20:45.131Z,70.38
2023-05-09T16:23:14.912Z,70.10
2023-05-09T16:25:43.288Z,70.13
2023-05-09T16:28:11.758Z,69.84
2023-05-09T16:30:40.132Z,69.89
2023-05-09T16:33:08.809Z,70.21
2023-05-09T16:35:37.367Z,69.96
2023-05-09T16:38:05.690Z,69.45
2023-05-09T16:40:35.561Z,69.32
2023-05-09T16:43:04.244Z,69.72
2023-05-09T16:45:32.636Z,69.98
2023-05-09T16:48:02.377Z,70.06
2023-05-09T16:50:31.036Z,69.89
2023-05-09T16:52:59.498Z,69.75
2023-05-09T16:55:27.971Z,70.04
2023-05-09T16:57:57.735Z,70.02
2023-05-09T17:00:26.324Z,69.83
2023-05-09T17:02:54.924Z,70.29
2023-05-09T17:05:23.575Z,70.39
2023-05-09T17:07:51.964Z,70.73
2023-05-09T17:10:20.428Z,70.91
2023-05-09T17:12:48.854Z,70.86
2023-05-09T17:15:18.665Z,70.55
2023-05-09T17:17:48.175Z,69.33
2023-05-09T17:20:16.997Z,69.36
2023-05-09T17:22:45.656Z,69.59
2023-05-09T17:25:14.964Z,69.44
2023-05-09T17:27:45.217Z,69.06
2023-05-09T17:30:14.880Z,69.15
2023-05-09T17:32:44.955Z,68.90
2023-05-09T17:35:13.952Z,68.69
2023-05-09T17:37:42.652Z,68.85
2023-05-09T17:40:12.189Z,69.08
2023-05-09T17:42:42.035Z,69.38
2023-05-09T17:45:12.488Z,68.63
2023-05-09T17:47:41.489Z,68.57
2023-05-09T17:50:14.835Z,68.74
2023-05-09T17:52:43.792Z,68.49
2023-05-09T17:55:14.912Z,68.35
2023-05-09T17:57:43.569Z,68.74
2023-05-09T18:00:14.326Z,69.17
2023-05-09T18:02:43.102Z,69.51
2023-05-09T18:05:12.961Z,69.82
2023-05-09T18:07:41.430Z,70.12
2023-05-09T18:10:10.991Z,69.69
2023-05-09T18:12:39.469Z,69.19
2023-05-09T18:15:09.127Z,69.30
2023-05-09T18:17:39.675Z,69.09
2023-05-09T18:20:15.153Z,68.87
2023-05-09T18:22:45.347Z,68.64
2023-05-09T18:25:13.854Z,68.38
2023-05-09T18:27:42.776Z,68.22
2023-05-09T18:30:11.814Z,67.93
2023-05-09T18:32:40.429Z,67.92
2023-05-09T18:35:10.480Z,68.33
2023-05-09T18:37:40.366Z,68.28
2023-05-09T18:40:15.905Z,68.66
2023-05-09T18:42:46.768Z,69.07
2023-05-09T18:45:22.002Z,69.62
2023-05-09T18:47:51.324Z,69.72
2023-05-09T18:50:19.889Z,69.78
2023-05-09T18:52:49.725Z,70.16
2023-05-09T18:55:19.909Z,70.09
2023-05-09T18:57:48.420Z,69.87
2023-05-09T19:00:17.803Z,69.92
2023-05-09T19:02:46.450Z,70.08
2023-05-09T19:05:16.042Z,69.94
2023-05-09T19:07:44.402Z,69.78
2023-05-09T19:10:18.171Z,69.97
2023-05-09T19:12:47.304Z,69.60
2023-05-09T19:15:15.927Z,70.14
2023-05-09T19:17:44.437Z,70.58
2023-05-09T19:20:14.204Z,70.49
2023-05-09T19:22:48.339Z,70.34
2023-05-09T19:25:18.925Z,70.22
2023-05-09T19:27:48.022Z,70.50
2023-05-09T19:30:17.115Z,70.69
2023-05-09T19:32:45.992Z,70.53
2023-05-09T19:35:14.452Z,70.45
2023-05-09T19:37:42.898Z,70.50
2023-05-09T19:40:11.997Z,70.62
2023-05-09T19:42:42.055Z,70.55
2023-05-09T19:45:11.501Z,70.72
2023-05-09T19:47:39.891Z,71.32
2023-05-09T19:50:10.226Z,71.10
2023-05-09T19:52:38.742Z,70.97
2023-05-09T19:55:08.017Z,71.16
2023-05-09T19:57:36.533Z,70.86
2023-05-09T20:00:07.469Z,70.86
2023-05-09T20:02:36.961Z,70.78
2023-05-09T20:05:05.626Z,70.50
2023-05-09T20:07:34.079Z,70.48
2023-05-09T20:10:03.675Z,70.28
2023-05-09T20:12:33.040Z,70.52
2023-05-09T20:15:02.097Z,70.87
2023-05-09T20:17:32.302Z,70.84
2023-05-09T20:20:00.701Z,70.47
2023-05-09T20:22:29.230Z,70.41
2023-05-09T20:24:57.641Z,70.78
2023-05-09T20:27:26.456Z,71.05
2023-05-09T20:29:54.967Z,71.26
2023-05-09T20:32:23.981Z,70.93
2023-05-09T20:34:53.741Z,70.84
2023-05-09T20:37:22.234Z,70.61
2023-05-09T20:39:50.733Z,70.46
2023-05-09T20:42:19.424Z,70.63
2023-05-09T20:44:48.829Z,70.40
2023-05-09T20:47:18.286Z,70.61
2023-05-09T20:49:46.783Z,70.95
2023-05-09T20:52:16.809Z,70.95
2023-05-09T20:54:47.192Z,70.86
2023-05-09T20:57:15.693Z,71.39
2023-05-09T20:59:44.251Z,71.14
2023-05-09T21:02:13.752Z,70.87
2023-05-09T21:04:42.233Z,70.58
2023-05-09T21:07:12.103Z,70.77
2023-05-09T21:09:42.784Z,70.81
2023-05-09T21:12:11.397Z,70.47
2023-05-09T21:14:39.878Z,70.36
2023-05-09T21:17:09.288Z,70.27
2023-05-09T21:19:37.779Z,70.57
2023-05-09T21:22:06.249Z,70.26
2023-05-09T21:24:34.734Z,70.70
2023-05-09T21:27:04.938Z,70.42
2023-05-09T21:29:33.388Z,70.46
2023-05-09T21:32:01.818Z,70.15
2023-05-09T21:34:30.322Z,70.20
2023-05-09T21:36:58.698Z,70.31
2023-05-09T21:39:27.061Z,69.99
2023-05-09T21:41:55.447Z,70.23
2023-05-09T21:44:25.348Z,69.67
2023-05-09T21:46:53.820Z,69.25
2023-05-09T21:49:22.279Z,68.24
2023-05-09T21:51:50.775Z,67.04
2023-05-09T21:54:19.233Z,66.56
2023-05-09T21:56:47.808Z,66.38
2023-05-09T21:59:17.827Z,66.18
2023-05-09T22:01:53.942Z,65.73
2023-05-09T22:04:22.530Z,65.40
2023-05-09T22:06:50.964Z,65.52
2023-05-09T22:09:19.480Z,65.81
2023-05-09T22:11:47.829Z,65.35
2023-05-09T22:14:16.338Z,65.41
2023-05-09T22:16:44.784Z,65.16
2023-05-09T22:19:14.740Z,65.47
2023-05-09T22:21:43.131Z,66.21
2023-05-09T22:24:11.704Z,66.60
2023-05-09T22:26:40.126Z,66.58
2023-05-09T22:29:08.805Z,66.73
2023-05-09T22:31:37.514Z,66.74
2023-05-09T22:34:06.225Z,67.13
2023-05-09T22:36:36.035Z,67.27
2023-05-09T22:39:04.638Z,67.39
2023-05-09T22:41:32.986Z,67.25
2023-05-09T22:44:01.432Z,67.56
2023-05-09T22:46:29.836Z,67.59
2023-05-09T22:48:58.351Z,67.81
2023-05-09T22:51:27.872Z,67.85
2023-05-09T22:53:57.649Z,67.84
2023-05-09T22:56:26.535Z,67.98
2023-05-09T22:58:54.900Z,67.93
2023-05-09T23:01:23.321Z,67.35
2023-05-09T23:03:51.765Z,67.35
2023-05-09T23:06:20.384Z,66.66
2023-05-09T23:08:48.912Z,66.55
2023-05-09T23:11:20.528Z,66.33
2023-05-09T23:13:48.913Z,66.03
2023-05-09T23:16:17.417Z,66.00
2023-05-09T23:18:46.007Z,65.70
2023-05-09T23:21:14.289Z,66.01
2023-05-09T23:23:42.732Z,64.67
2023-05-09T23:26:11.134Z,63.72
2023-05-09T23:28:40.888Z,63.54
2023-05-09T23:31:09.916Z,62.68
2023-05-09T23:33:38.436Z,62.41
2023-05-09T23:36:07.333Z,62.76
2023-05-09T23:38:35.722Z,62.35
2023-05-09T23:41:04.116Z,61.46
2023-05-09T23:43:32.830Z,62.12
2023-05-09T23:46:02.658Z,62.18
2023-05-09T23:48:31.189Z,61.86
2023-05-09T23:50:59.522Z,63.19
2023-05-09T23:53:27.994Z,63.69
2023-05-09T23:55:56.469Z,63.63
2023-05-09T23:58:24.870Z,63.64
